Time;durP1;ratioP1;P1;durP2;ratioP2;P2;SDS_P1;SDS_P2;PMS_P1;PMS_P2;Temp;Humidity;BMP_temperature;BMP_pressure;BME280_temperature;BME280_humidity;BME280_pressure;Samples;Min_cycle;Max_cycle;Signal;HPM_P1;HPM_P2
2022/08/09 00:01:38;;;;;;;;;;;;;;;21.37;47.99;101516.06;4976042;28;7181;-75
2022/08/09 00:04:04;;;;;;;;;;;;;;;21.33;47.75;101516.84;4969260;28;8046;-75
2022/08/09 00:06:31;;;;;;;;;;;;;;;21.30;48.11;101511.56;4976022;28;7358;-75
2022/08/09 00:08:56;;;;;;;;;;;;;;;21.27;47.87;101516.72;5000212;28;6851;-75
2022/08/09 00:11:22;;;;;;;;;;;;;;;21.25;48.25;101515.81;5012403;28;6929;-75
2022/08/09 00:13:49;;;;;;;;;;;;;;;21.21;48.15;101518.34;4991246;28;7268;-75
2022/08/09 00:16:16;;;;;;;;;;;;;;;21.18;48.25;101520.88;4981387;28;6804;-75
2022/08/09 00:18:43;;;;;;;;;;;;;;;21.15;48.59;101514.72;5011082;28;6804;-75
2022/08/09 00:21:08;;;;;;;;;;;;;;;21.12;48.60;101509.44;5010779;28;7206;-75
2022/08/09 00:23:36;;;;;;;;;;;;;;;21.07;48.75;101511.97;4997537;28;7349;-75
2022/08/09 00:26:02;;;;;;;;;;;;;;;21.04;48.92;101509.25;4979042;28;7945;-75
2022/08/09 00:28:27;;;;;;;;;;;;;;;20.99;48.77;101514.38;5013816;28;8004;-75
2022/08/09 00:30:55;;;;;;;;;;;;;;;20.97;49.08;101517.81;4977004;28;6806;-74
2022/08/09 00:33:21;;;;;;;;;;;;;;;20.93;49.12;101525.53;4995114;28;7313;-75
2022/08/09 00:35:47;;;;;;;;;;;;;;;20.91;49.28;101514.22;5013074;28;6942;-75
2022/08/09 00:38:13;;;;;;;;;;;;;;;20.89;49.14;101518.50;5012225;28;7741;-75
2022/08/09 00:40:39;;;;;;;;;;;;;;;20.88;49.46;101518.47;4980412;28;6807;-75
2022/08/09 00:43:04;;;;;;;;;;;;;;;20.86;49.77;101521.06;5013540;28;7014;-75
2022/08/09 00:45:30;;;;;;;;;;;;;;;20.83;49.59;101515.75;4980910;28;6900;-75
2022/08/09 00:47:56;;;;;;;;;;;;;;;20.83;49.88;101514.88;5013902;28;6792;-74
2022/08/09 00:50:23;;;;;;;;;;;;;;;20.78;49.57;101512.13;5010394;28;6787;-76
2022/08/09 00:52:51;;;;;;;;;;;;;;;20.75;49.97;101514.66;4978262;28;6807;-75
2022/08/09 00:55:18;;;;;;;;;;;;;;;20.71;49.75;101515.44;4978734;28;6852;-75
2022/08/09 00:57:44;;;;;;;;;;;;;;;20.68;50.08;101517.13;4969018;28;8226;-75
2022/08/09 01:00:11;;;;;;;;;;;;;;;20.65;50.20;101517.03;5008264;28;8358;-75
2022/08/09 01:02:46;;;;;;;;;;;;;;;20.63;50.29;101517.88;5007445;28;6891;-75
2022/08/09 01:05:23;;;;;;;;;;;;;;;20.60;50.50;101513.47;4984587;28;7268;-75
2022/08/09 01:07:56;;;;;;;;;;;;;;;20.58;50.64;101515.16;4980593;28;6804;-75
2022/08/09 01:10:56;;;;;;;;;;;;;;;20.56;50.66;101516.81;4981999;28;7001;-75
2022/08/09 01:13:45;;;;;;;;;;;;;;;20.52;50.82;101523.69;4985357;28;6871;-75
2022/08/09 01:16:12;;;;;;;;;;;;;;;20.49;50.94;101521.00;4976993;28;7387;-75
2022/08/09 01:18:44;;;;;;;;;;;;;;;20.46;50.63;101513.13;5000877;28;6982;-75
2022/08/09 01:21:58;;;;;;;;;;;;;;;20.45;50.50;101520.88;4979687;28;6823;-75
2022/08/09 01:24:51;;;;;;;;;;;;;;;20.43;50.22;101514.75;4997222;28;7160;-75
2022/08/09 01:27:22;;;;;;;;;;;;;;;20.40;50.52;101516.44;4979496;28;6872;-75
2022/08/09 01:30:02;;;;;;;;;;;;;;;20.39;50.68;101512.09;4982564;28;6973;-75
2022/08/09 01:32:37;;;;;;;;;;;;;;;20.37;50.42;101516.34;4976218;28;6884;-75
2022/08/09 01:35:14;;;;;;;;;;;;;;;20.35;50.76;101514.56;5011291;28;7868;-75
2022/08/09 01:37:43;;;;;;;;;;;;;;;20.31;50.71;101518.81;5010498;28;6812;-75
2022/08/09 01:40:13;;;;;;;;;;;;;;;20.28;50.61;101515.25;4978150;28;6808;-75
2022/08/09 01:42:41;;;;;;;;;;;;;;;20.25;50.83;101516.03;4974605;28;6808;-75
2022/08/09 01:45:08;;;;;;;;;;;;;;;20.21;51.07;101509.00;5014184;28;6929;-75
2022/08/09 01:47:36;;;;;;;;;;;;;;;20.18;51.47;101514.13;5011998;28;7047;-76
2022/08/09 01:50:03;;;;;;;;;;;;;;;20.12;51.37;101513.13;5014506;28;6796;-76
2022/08/09 01:52:31;;;;;;;;;;;;;;;20.08;51.82;101508.66;4987246;28;7761;-76
2022/08/09 01:55:01;;;;;;;;;;;;;;;20.04;51.24;101514.66;4996989;28;7121;-76
2022/08/09 01:57:42;;;;;;;;;;;;;;;20.02;51.31;101512.84;4997464;28;6986;-76
2022/08/09 02:00:11;;;;;;;;;;;;;;;19.97;51.57;101512.72;5015787;28;6831;-76
2022/08/09 02:02:46;;;;;;;;;;;;;;;19.94;51.80;101510.94;5012469;28;6974;-75
2022/08/09 02:05:16;;;;;;;;;;;;;;;19.91;51.80;101516.00;5013969;28;7285;-75
2022/08/09 02:07:56;;;;;;;;;;;;;;;19.89;52.26;101514.19;5015192;28;6989;-76
2022/08/09 02:10:27;;;;;;;;;;;;;;;19.88;52.00;101515.03;4987153;28;6888;-75
2022/08/09 02:12:56;;;;;;;;;;;;;;;19.88;52.07;101520.25;5016124;28;6804;-75
2022/08/09 02:15:24;;;;;;;;;;;;;;;19.85;52.28;101516.72;5015215;28;7215;-75
2022/08/09 02:17:55;;;;;;;;;;;;;;;19.86;52.20;101520.22;5015062;28;6975;-75
2022/08/09 02:20:21;;;;;;;;;;;;;;;19.83;52.08;101515.81;4998616;28;6987;-76
2022/08/09 02:23:02;;;;;;;;;;;;;;;19.82;52.00;101520.94;5011696;28;6825;-75
2022/08/09 02:25:32;;;;;;;;;;;;;;;19.80;52.11;101520.03;4979675;28;6972;-75
2022/08/09 02:28:07;;;;;;;;;;;;;;;19.79;52.50;101510.47;4987235;28;6950;-75
2022/08/09 02:30:42;;;;;;;;;;;;;;;19.76;52.08;101511.25;4981871;28;7234;-75
2022/08/09 02:33:13;;;;;;;;;;;;;;;19.76;52.31;101511.25;5005792;28;7141;-75
2022/08/09 02:35:41;;;;;;;;;;;;;;;19.75;52.92;101511.22;5015929;28;6832;-75
2022/08/09 02:38:11;;;;;;;;;;;;;;;19.72;52.63;101509.44;5031708;28;7268;-76
2022/08/09 02:40:41;;;;;;;;;;;;;;;19.71;52.52;101520.66;4984956;28;6819;-77
2022/08/09 02:43:09;;;;;;;;;;;;;;;19.68;53.08;101515.38;4985968;28;7381;-77
2022/08/09 02:45:43;;;;;;;;;;;;;;;19.66;52.60;101517.94;5013353;28;7193;-75
2022/08/09 02:48:15;;;;;;;;;;;;;;;19.63;52.86;101510.03;5014286;28;6796;-75
2022/08/09 02:50:50;;;;;;;;;;;;;;;19.64;53.18;101516.13;4999808;28;7968;-76
2022/08/09 02:53:25;;;;;;;;;;;;;;;19.61;53.39;101516.91;4996103;28;6999;-75
2022/08/09 02:55:53;;;;;;;;;;;;;;;19.58;53.20;101511.63;5011717;28;7131;-75
2022/08/09 02:58:24;;;;;;;;;;;;;;;19.54;52.80;101510.66;4986237;28;6875;-75
2022/08/09 03:00:53;;;;;;;;;;;;;;;19.50;53.04;101508.78;5010736;28;7149;-76
2022/08/09 03:03:21;;;;;;;;;;;;;;;19.46;52.80;101500.88;4976016;28;6871;-76
2022/08/09 03:05:50;;;;;;;;;;;;;;;19.42;53.31;101515.53;5027973;28;7015;-76
2022/08/09 03:08:19;;;;;;;;;;;;;;;19.38;52.58;101509.34;4980924;28;7701;-75
2022/08/09 03:10:47;;;;;;;;;;;;;;;19.33;52.83;101512.66;5000645;28;7043;-75
2022/08/09 03:13:15;;;;;;;;;;;;;;;19.27;53.17;101515.94;4999178;28;7202;-76
2022/08/09 03:15:42;;;;;;;;;;;;;;;19.20;53.47;101508.78;4998062;28;7265;-75
2022/08/09 03:18:10;;;;;;;;;;;;;;;19.11;52.79;101506.78;4986551;28;7019;-75
2022/08/09 03:20:41;;;;;;;;;;;;;;;19.06;53.46;101505.78;4981304;28;8176;-75
2022/08/09 03:23:09;;;;;;;;;;;;;;;18.99;53.37;101515.06;4979803;28;6803;-75
2022/08/09 03:25:37;;;;;;;;;;;;;;;18.94;53.75;101512.34;4974367;28;6987;-75
2022/08/09 03:28:04;;;;;;;;;;;;;;;18.90;53.70;101510.44;5006228;28;6823;-75
2022/08/09 03:30:31;;;;;;;;;;;;;;;18.88;53.83;101507.81;5009394;28;6948;-75
2022/08/09 03:33:02;;;;;;;;;;;;;;;18.87;53.84;101507.78;4985006;28;6792;-75
2022/08/09 03:35:28;;;;;;;;;;;;;;;18.83;54.23;101509.38;5002059;28;6990;-76
2022/08/09 03:37:54;;;;;;;;;;;;;;;18.80;54.18;101516.19;4980696;28;7194;-77
2022/08/09 03:40:20;;;;;;;;;;;;;;;18.77;54.04;101514.38;4980021;28;6787;-76
2022/08/09 03:42:46;;;;;;;;;;;;;;;18.76;54.09;101517.81;4991084;28;7002;-76
2022/08/09 03:45:11;;;;;;;;;;;;;;;18.78;54.86;101515.28;5012806;28;7087;-74
2022/08/09 03:47:37;;;;;;;;;;;;;;;18.81;54.71;101517.94;4994387;28;6823;-74
2022/08/09 03:50:08;;;;;;;;;;;;;;;18.82;54.99;101520.63;4979398;28;6811;-74
2022/08/09 03:52:37;;;;;;;;;;;;;;;18.85;55.27;101520.69;5013937;28;7767;-74
2022/08/09 03:55:06;;;;;;;;;;;;;;;18.88;55.51;101519.91;4991747;28;7257;-74
2022/08/09 03:57:32;;;;;;;;;;;;;;;18.91;55.47;101522.59;4979011;28;6876;-75
2022/08/09 03:59:58;;;;;;;;;;;;;;;18.93;55.75;101522.66;5029464;28;7120;-75
2022/08/09 04:02:26;;;;;;;;;;;;;;;18.93;55.14;101526.16;5010609;28;7839;-75
2022/08/09 04:04:52;;;;;;;;;;;;;;;18.93;55.10;101526.16;5011960;28;6796;-74
2022/08/09 04:07:17;;;;;;;;;;;;;;;18.94;55.84;101529.63;4981432;28;6796;-75
2022/08/09 04:09:43;;;;;;;;;;;;;;;18.94;55.40;101527.91;5012163;28;6775;-74
2022/08/09 04:12:09;;;;;;;;;;;;;;;18.95;55.32;101532.28;4975932;28;6792;-74
2022/08/09 04:14:39;;;;;;;;;;;;;;;18.97;55.51;101535.78;4980773;28;6775;-74
2022/08/09 04:17:06;;;;;;;;;;;;;;;18.98;55.14;101532.34;4963106;28;7124;-75
2022/08/09 04:19:32;;;;;;;;;;;;;;;18.97;55.67;101533.19;4999691;28;7059;-75
2022/08/09 04:21:59;;;;;;;;;;;;;;;18.98;55.78;101541.88;5002503;28;6938;-75
2022/08/09 04:24:24;;;;;;;;;;;;;;;18.97;55.35;101537.50;4995248;28;7501;-75
2022/08/09 04:26:51;;;;;;;;;;;;;;;18.98;55.54;101542.75;4974265;28;6776;-75
2022/08/09 04:29:17;;;;;;;;;;;;;;;18.99;55.00;101541.91;5012206;28;7014;-75
2022/08/09 04:31:42;;;;;;;;;;;;;;;19.00;55.12;101550.59;4989729;28;7299;-75
2022/08/09 04:34:08;;;;;;;;;;;;;;;18.99;55.02;101551.44;5000230;28;8012;-75
2022/08/09 04:36:33;;;;;;;;;;;;;;;19.00;55.08;101554.09;5010205;28;7038;-75
2022/08/09 04:39:04;;;;;;;;;;;;;;;19.03;55.28;101558.50;5008928;28;6829;-74
2022/08/09 04:41:31;;;;;;;;;;;;;;;19.08;56.05;101551.75;4975659;28;7888;-75
2022/08/09 04:43:56;;;;;;;;;;;;;;;19.14;55.51;101554.53;5018181;28;7094;-75
2022/08/09 04:46:22;;;;;;;;;;;;;;;19.26;55.57;101560.94;5010260;28;6815;-75
2022/08/09 04:48:48;;;;;;;;;;;;;;;19.32;55.83;101560.28;5011864;28;7104;-75
2022/08/09 04:51:14;;;;;;;;;;;;;;;19.38;55.76;101561.34;5007348;28;6930;-75
2022/08/09 04:53:40;;;;;;;;;;;;;;;19.43;55.42;101564.94;5011411;28;8149;-75
2022/08/09 04:56:06;;;;;;;;;;;;;;;19.50;55.52;101565.13;4979456;28;6944;-75
2022/08/09 04:58:32;;;;;;;;;;;;;;;19.52;54.73;101564.34;5009697;28;6792;-74
2022/08/09 05:01:00;;;;;;;;;;;;;;;19.62;55.32;101564.63;5027123;28;6938;-74
2022/08/09 05:03:26;;;;;;;;;;;;;;;19.76;55.35;101557.22;5006462;28;6860;-75
2022/08/09 05:05:52;;;;;;;;;;;;;;;19.95;55.89;101559.53;4977221;28;6784;-75
2022/08/09 05:08:18;;;;;;;;;;;;;;;20.14;55.81;101559.13;5010871;28;9422;-75
2022/08/09 05:10:44;;;;;;;;;;;;;;;20.34;55.52;101551.88;5027499;28;6987;-75
2022/08/09 05:13:10;;;;;;;;;;;;;;;20.56;54.93;101548.06;5009559;28;6852;-75
2022/08/09 05:15:36;;;;;;;;;;;;;;;20.77;54.54;101557.28;5001421;28;6996;-74
2022/08/09 05:18:02;;;;;;;;;;;;;;;20.97;54.32;101556.91;4977549;28;6990;-75
2022/08/09 05:20:28;;;;;;;;;;;;;;;21.13;54.13;101552.91;5029932;28;7291;-75
2022/08/09 05:22:54;;;;;;;;;;;;;;;21.27;53.45;101561.91;5027208;28;7399;-75
2022/08/09 05:25:21;;;;;;;;;;;;;;;21.40;53.09;101560.44;5024288;28;7120;-75
2022/08/09 05:27:47;;;;;;;;;;;;;;;21.51;52.65;101550.25;5012445;28;6795;-75
2022/08/09 05:30:14;;;;;;;;;;;;;;;21.62;52.89;101556.56;5009926;28;7179;-75
2022/08/09 05:32:40;;;;;;;;;;;;;;;21.71;52.34;101555.91;4999406;28;11434;-75
2022/08/09 05:35:06;;;;;;;;;;;;;;;21.80;52.32;101563.06;4995272;28;6968;-75
2022/08/09 05:37:32;;;;;;;;;;;;;;;21.90;51.84;101569.31;5008905;28;6828;-75
2022/08/09 05:39:57;;;;;;;;;;;;;;;21.97;51.78;101565.09;5009162;28;7159;-76
2022/08/09 05:42:24;;;;;;;;;;;;;;;22.03;51.55;101563.50;4995864;28;6944;-74
2022/08/09 05:44:53;;;;;;;;;;;;;;;22.07;51.45;101564.44;4982403;28;6792;-74
2022/08/09 05:47:22;;;;;;;;;;;;;;;22.12;51.19;101569.75;5011001;28;6800;-74
2022/08/09 05:49:47;;;;;;;;;;;;;;;22.18;51.22;101572.47;4979715;28;8031;-74
2022/08/09 05:52:13;;;;;;;;;;;;;;;22.19;50.80;101562.06;4976906;28;6795;-74
2022/08/09 05:54:39;;;;;;;;;;;;;;;22.18;50.36;101562.00;5009668;28;6807;-75
2022/08/09 05:57:05;;;;;;;;;;;;;;;22.10;49.72;101564.50;5021256;28;6981;-74
2022/08/09 05:59:31;;;;;;;;;;;;;;;22.02;49.62;101571.28;4981388;28;6811;-74
2022/08/09 06:01:57;;;;;;;;;;;;;;;21.93;49.58;101577.22;4990048;28;8197;-74
2022/08/09 06:04:23;;;;;;;;;;;;;;;21.83;49.71;101570.06;5009326;28;6780;-74
2022/08/09 06:06:49;;;;;;;;;;;;;;;21.78;50.04;101580.41;5010701;28;6975;-75
2022/08/09 06:09:14;;;;;;;;;;;;;;;21.72;49.83;101580.28;5013557;28;6956;-74
2022/08/09 06:11:40;;;;;;;;;;;;;;;21.69;50.49;101582.84;4972430;28;6768;-74
2022/08/09 06:14:05;;;;;;;;;;;;;;;21.68;50.36;101594.97;5011331;28;6844;-74
2022/08/09 06:16:31;;;;;;;;;;;;;;;21.66;50.43;101588.81;4997172;28;6768;-74
2022/08/09 06:18:57;;;;;;;;;;;;;;;21.67;50.69;101592.31;4978217;28;6782;-75
2022/08/09 06:21:22;;;;;;;;;;;;;;;21.65;50.59;101592.28;5018260;28;7180;-74
2022/08/09 06:23:48;;;;;;;;;;;;;;;21.68;50.52;101587.16;4996833;28;7437;-74
2022/08/09 06:26:16;;;;;;;;;;;;;;;21.70;51.01;101579.38;5024004;28;7106;-74
2022/08/09 06:28:41;;;;;;;;;;;;;;;21.75;51.12;101577.72;5009528;28;6880;-74
2022/08/09 06:31:07;;;;;;;;;;;;;;;21.82;51.30;101583.94;4981293;28;6767;-74
2022/08/09 06:33:33;;;;;;;;;;;;;;;21.90;51.03;101584.97;4982066;28;7136;-74
2022/08/09 06:35:59;;;;;;;;;;;;;;;21.97;51.26;101589.47;5012893;28;6828;-74
2022/08/09 06:38:25;;;;;;;;;;;;;;;22.04;51.13;101591.38;5010947;28;6970;-75
2022/08/09 06:40:51;;;;;;;;;;;;;;;22.13;50.80;101595.00;5010277;28;7279;-74
2022/08/09 06:43:17;;;;;;;;;;;;;;;22.22;50.72;101597.78;4984429;28;7272;-74
2022/08/09 06:45:43;;;;;;;;;;;;;;;22.32;50.33;101602.34;4999598;28;7021;-74
2022/08/09 06:48:08;;;;;;;;;;;;;;;22.39;50.08;101594.59;4977523;28;6856;-74
2022/08/09 06:50:34;;;;;;;;;;;;;;;22.45;50.39;101598.22;5010163;28;6775;-74
2022/08/09 06:53:00;;;;;;;;;;;;;;;22.52;50.15;101587.88;4976582;28;7099;-74
2022/08/09 06:55:30;;;;;;;;;;;;;;;22.57;49.83;101597.56;5010262;28;6950;-74
2022/08/09 06:57:56;;;;;;;;;;;;;;;22.63;49.96;101601.16;5014231;28;7284;-75
2022/08/09 07:00:22;;;;;;;;;;;;;;;22.67;49.36;101598.59;5010696;28;6787;-75
2022/08/09 07:02:49;;;;;;;;;;;;;;;22.71;49.31;101589.09;4980575;28;7836;-74
2022/08/09 07:05:14;;;;;;;;;;;;;;;22.80;49.31;101588.34;4980591;28;7019;-74
2022/08/09 07:07:40;;;;;;;;;;;;;;;22.87;49.54;101591.06;4980527;28;6764;-75
2022/08/09 07:10:06;;;;;;;;;;;;;;;22.96;48.81;101590.34;5013690;28;7062;-75
2022/08/09 07:12:32;;;;;;;;;;;;;;;23.04;49.18;101582.63;4979649;28;7282;-74
2022/08/09 07:14:57;;;;;;;;;;;;;;;23.14;49.03;101594.97;5011324;28;7070;-74
2022/08/09 07:17:23;;;;;;;;;;;;;;;23.26;49.02;101588.16;4993848;28;6973;-74
2022/08/09 07:19:50;;;;;;;;;;;;;;;23.35;48.75;101587.47;5012782;28;6989;-75
2022/08/09 07:22:16;;;;;;;;;;;;;;;23.43;48.51;101588.44;4979264;28;7069;-76
2022/08/09 07:24:41;;;;;;;;;;;;;;;23.53;47.94;101586.81;4981069;28;6851;-75
2022/08/09 07:27:10;;;;;;;;;;;;;;;23.62;48.58;101584.31;4993779;28;7101;-75
2022/08/09 07:29:37;;;;;;;;;;;;;;;23.73;47.92;101584.47;5010924;28;6958;-75
2022/08/09 07:32:04;;;;;;;;;;;;;;;23.82;48.03;101583.69;5000387;28;7183;-75
2022/08/09 07:34:29;;;;;;;;;;;;;;;23.92;47.98;101589.91;4980523;28;6948;-75
2022/08/09 07:36:55;;;;;;;;;;;;;;;24.02;47.48;101590.88;5014679;28;7273;-75
2022/08/09 07:39:22;;;;;;;;;;;;;;;24.13;47.16;101584.03;4984667;28;6796;-75
2022/08/09 07:41:48;;;;;;;;;;;;;;;24.28;46.60;101593.81;5012539;28;6807;-75
2022/08/09 07:44:13;;;;;;;;;;;;;;;24.44;46.31;101584.38;5013230;28;6780;-75
2022/08/09 07:46:39;;;;;;;;;;;;;;;24.60;46.25;101589.72;5027696;28;6997;-75
2022/08/09 07:49:05;;;;;;;;;;;;;;;24.76;45.73;101590.72;5010579;28;7315;-75
2022/08/09 07:51:31;;;;;;;;;;;;;;;24.91;45.17;101584.75;4981174;28;6787;-76
2022/08/09 07:53:57;;;;;;;;;;;;;;;25.02;44.63;101582.22;5011689;28;6993;-76
2022/08/09 07:56:24;;;;;;;;;;;;;;;25.14;44.13;101584.03;5009906;28;6951;-76
2022/08/09 07:58:50;;;;;;;;;;;;;;;25.26;44.35;101584.09;4983865;28;7328;-75
2022/08/09 08:01:16;;;;;;;;;;;;;;;25.41;43.42;101585.06;4978137;28;6949;-76
2022/08/09 08:03:42;;;;;;;;;;;;;;;25.54;42.80;101584.28;5010969;28;7040;-76
2022/08/09 08:06:08;;;;;;;;;;;;;;;25.65;42.79;101579.09;4979603;28;6776;-76
2022/08/09 08:08:33;;;;;;;;;;;;;;;25.74;42.30;101587.00;5010440;28;7119;-76
2022/08/09 08:10:59;;;;;;;;;;;;;;;25.86;42.43;101593.16;4996575;28;8514;-75
2022/08/09 08:13:25;;;;;;;;;;;;;;;25.96;41.74;101586.16;5011450;28;7093;-76
2022/08/09 08:15:51;;;;;;;;;;;;;;;26.06;41.79;101582.69;5026014;28;6973;-76
2022/08/09 08:18:16;;;;;;;;;;;;;;;26.18;41.11;101580.09;4978999;28;6855;-75
2022/08/09 08:20:42;;;;;;;;;;;;;;;26.31;41.07;101581.00;5015174;28;7027;-75
2022/08/09 08:23:08;;;;;;;;;;;;;;;26.42;40.60;101581.03;5009620;28;6792;-76
2022/08/09 08:25:34;;;;;;;;;;;;;;;26.54;40.66;101576.63;4984033;28;6772;-75
2022/08/09 08:28:01;;;;;;;;;;;;;;;26.61;40.38;101576.66;4994436;28;7176;-76
2022/08/09 08:30:27;;;;;;;;;;;;;;;26.68;39.68;101576.63;5010074;28;6982;-75
2022/08/09 08:32:52;;;;;;;;;;;;;;;26.78;39.62;101580.16;4980392;28;6948;-75
2022/08/09 08:35:18;;;;;;;;;;;;;;;26.86;39.28;101575.75;5013956;28;7831;-75
2022/08/09 08:37:44;;;;;;;;;;;;;;;26.92;39.33;101567.88;4979016;28;6803;-75
2022/08/09 08:40:11;;;;;;;;;;;;;;;27.03;39.28;101563.47;4977534;28;6839;-76
2022/08/09 08:42:37;;;;;;;;;;;;;;;27.13;38.72;101577.47;5007557;28;7186;-76
2022/08/09 08:45:04;;;;;;;;;;;;;;;27.25;38.63;101576.59;5008163;28;7192;-76
2022/08/09 08:47:30;;;;;;;;;;;;;;;27.38;38.42;101566.00;5011183;28;7144;-75
2022/08/09 08:50:00;;;;;;;;;;;;;;;27.54;38.00;101577.34;5006901;28;7875;-76
2022/08/09 08:52:28;;;;;;;;;;;;;;;27.70;37.79;101573.78;5004292;28;6804;-76
2022/08/09 08:54:59;;;;;;;;;;;;;;;27.92;37.54;101572.81;5005754;28;6982;-78
2022/08/09 08:57:27;;;;;;;;;;;;;;;28.11;37.22;101587.63;4979695;28;7147;-77
2022/08/09 08:59:54;;;;;;;;;;;;;;;28.32;36.41;101588.38;5000185;28;7208;-76
2022/08/09 09:02:28;;;;;;;;;;;;;;;28.60;35.29;101587.28;5011485;28;6812;-76
2022/08/09 09:04:56;;;;;;;;;;;;;;;29.01;35.18;101579.88;5012475;28;6791;-76
2022/08/09 09:07:24;;;;;;;;;;;;;;;29.57;34.98;101595.13;4994566;28;7060;-76
2022/08/09 09:09:52;;;;;;;;;;;;;;;30.18;33.44;101600.47;4997738;28;6965;-77
2022/08/09 09:12:22;;;;;;;;;;;;;;;30.66;32.54;101586.47;4981976;28;6792;-77
2022/08/09 09:14:50;;;;;;;;;;;;;;;31.08;32.12;101575.13;5006077;28;7235;-76
2022/08/09 09:17:16;;;;;;;;;;;;;;;31.57;31.38;101575.03;5008893;28;7278;-77
2022/08/09 09:19:42;;;;;;;;;;;;;;;32.04;30.85;101576.66;4974596;28;6775;-77
2022/08/09 09:22:15;;;;;;;;;;;;;;;32.46;30.49;101570.38;4978532;28;7205;-77
2022/08/09 09:24:48;;;;;;;;;;;;;;;32.88;29.66;101577.25;5007055;28;6854;-77
2022/08/09 09:27:21;;;;;;;;;;;;;;;33.23;28.99;101580.72;4983501;28;6819;-76
2022/08/09 09:29:48;;;;;;;;;;;;;;;33.54;28.91;101582.50;4970651;28;7879;-76
2022/08/09 09:32:28;;;;;;;;;;;;;;;33.92;28.29;101584.88;5007744;28;6799;-78
2022/08/09 09:35:06;;;;;;;;;;;;;;;34.20;27.66;101574.25;4971707;28;6800;-77
2022/08/09 09:37:32;;;;;;;;;;;;;;;34.40;26.63;101580.69;4980945;28;7172;-77
2022/08/09 09:39:58;;;;;;;;;;;;;;;34.45;26.68;101570.75;4977175;28;6799;-77
2022/08/09 09:42:28;;;;;;;;;;;;;;;34.55;26.59;101566.03;4969189;28;6839;-76
2022/08/09 09:45:04;;;;;;;;;;;;;;;34.78;26.46;101563.47;4971126;28;6800;-77
2022/08/09 09:47:30;;;;;;;;;;;;;;;34.94;26.37;101561.13;4976143;28;7314;-76
2022/08/09 09:49:58;;;;;;;;;;;;;;;35.07;25.97;101565.09;5009608;28;6815;-77
2022/08/09 09:52:26;;;;;;;;;;;;;;;35.22;25.64;101576.97;5008007;28;6807;-77
2022/08/09 09:55:07;;;;;;;;;;;;;;;35.35;25.22;101579.16;4993654;28;6867;-78
2022/08/09 09:57:33;;;;;;;;;;;;;;;35.44;25.51;101584.13;4997628;28;7300;-79
2022/08/09 09:59:58;;;;;;;;;;;;;;;35.49;25.63;101581.28;5007389;28;7344;-77
2022/08/09 10:02:25;;;;;;;;;;;;;;;35.55;25.39;101576.63;5009771;28;6860;-76
2022/08/09 10:05:09;;;;;;;;;;;;;;;35.63;24.95;101570.09;5012559;28;6986;-76
2022/08/09 10:07:36;;;;;;;;;;;;;;;35.83;24.40;101567.53;4981685;28;6812;-76
2022/08/09 10:10:04;;;;;;;;;;;;;;;36.06;24.37;101570.16;5013568;28;7293;-77
2022/08/09 10:12:35;;;;;;;;;;;;;;;36.26;24.49;101577.38;5009126;28;7159;-77
2022/08/09 10:15:10;;;;;;;;;;;;;;;36.36;24.21;101569.84;4996865;28;7346;-78
2022/08/09 10:17:38;;;;;;;;;;;;;;;36.36;23.94;101577.84;5012448;28;7289;-77
2022/08/09 10:20:18;;;;;;;;;;;;;;;36.35;23.66;101578.78;4976818;28;6820;-76
2022/08/09 10:22:52;;;;;;;;;;;;;;;36.39;23.70;101575.06;4983908;28;7115;-75
2022/08/09 10:25:18;;;;;;;;;;;;;;;36.48;23.57;101566.66;4998466;28;7086;-74
2022/08/09 10:27:46;;;;;;;;;;;;;;;36.60;23.36;101573.28;4978034;28;6791;-75
2022/08/09 10:30:13;;;;;;;;;;;;;;;36.59;23.50;101571.53;5008935;28;8553;-75
2022/08/09 10:32:40;;;;;;;;;;;;;;;36.60;23.58;101570.59;4983244;28;11270;-75
2022/08/09 10:35:07;;;;;;;;;;;;;;;36.66;23.27;101572.16;5017139;28;7470;-75
2022/08/09 10:37:33;;;;;;;;;;;;;;;36.77;23.39;101574.34;4984724;28;7161;-74
2022/08/09 10:39:59;;;;;;;;;;;;;;;36.89;23.30;101564.91;5014186;28;6922;-75
2022/08/09 10:42:25;;;;;;;;;;;;;;;37.12;22.99;101566.56;4978005;28;6800;-74
2022/08/09 10:45:05;;;;;;;;;;;;;;;37.40;22.81;101567.06;4983322;28;7240;-74
2022/08/09 10:48:06;;;;;;;;;;;;;;;37.48;22.16;101571.13;4981503;28;7331;-75
2022/08/09 10:51:05;;;;;;;;;;;;;;;37.46;22.30;101564.97;4985174;28;6880;-75
2022/08/09 10:53:31;;;;;;;;;;;;;;;37.45;22.48;101557.03;4983918;28;6811;-75
2022/08/09 10:56:25;;;;;;;;;;;;;;;37.57;22.22;101558.25;5015421;28;7082;-75
2022/08/09 10:58:55;;;;;;;;;;;;;;;37.73;22.17;101559.25;4967598;28;7202;-75
2022/08/09 11:01:30;;;;;;;;;;;;;;;37.75;21.64;101554.69;5015500;28;7089;-75
2022/08/09 11:04:08;;;;;;;;;;;;;;;37.79;22.04;101561.63;4981920;28;7239;-74
2022/08/09 11:06:37;;;;;;;;;;;;;;;37.89;21.85;101563.84;4985602;28;7330;-76
2022/08/09 11:09:08;;;;;;;;;;;;;;;37.92;21.61;101563.69;5009919;28;6892;-76
2022/08/09 11:11:53;;;;;;;;;;;;;;;37.75;21.85;101560.03;5012204;28;7217;-75
2022/08/09 11:14:53;;;;;;;;;;;;;;;37.62;21.57;101551.78;5013170;28;6820;-75
2022/08/09 11:17:21;;;;;;;;;;;;;;;37.49;21.63;101554.13;4984797;28;7106;-75
2022/08/09 11:20:08;;;;;;;;;;;;;;;37.48;21.46;101549.75;4982488;28;7078;-76
2022/08/09 11:22:40;;;;;;;;;;;;;;;37.44;21.01;101556.16;4984929;28;7311;-75
2022/08/09 11:25:09;;;;;;;;;;;;;;;37.32;21.74;101546.91;4980365;28;6971;-75
2022/08/09 11:27:39;;;;;;;;;;;;;;;37.35;21.42;101543.22;4981882;28;7574;-74
2022/08/09 11:30:08;;;;;;;;;;;;;;;37.54;21.52;101542.38;5009441;28;6948;-75
2022/08/09 11:33:01;;;;;;;;;;;;;;;37.71;21.72;101542.44;4974839;28;6796;-75
2022/08/09 11:35:46;;;;;;;;;;;;;;;37.87;21.33;101545.19;4977739;28;6823;-75
2022/08/09 11:38:34;;;;;;;;;;;;;;;37.99;21.36;101535.69;5007459;28;7247;-75
2022/08/09 11:41:09;;;;;;;;;;;;;;;38.23;20.92;101538.06;4980487;28;7023;-76
2022/08/09 11:43:34;;;;;;;;;;;;;;;38.34;20.74;101530.38;5010996;28;7186;-75
2022/08/09 11:46:03;;;;;;;;;;;;;;;38.39;20.54;101537.28;5010428;28;8065;-76
2022/08/09 11:48:44;;;;;;;;;;;;;;;38.39;20.69;101534.63;4976809;28;6958;-75
2022/08/09 11:51:09;;;;;;;;;;;;;;;38.49;20.57;101519.84;5010805;28;7273;-75
2022/08/09 11:53:37;;;;;;;;;;;;;;;38.71;20.46;101524.03;4997515;28;7343;-74
2022/08/09 11:56:15;;;;;;;;;;;;;;;38.96;20.34;101512.88;5009407;28;7041;-74
2022/08/09 11:58:54;;;;;;;;;;;;;;;39.29;19.95;101519.09;4980166;28;7604;-75
2022/08/09 12:01:34;;;;;;;;;;;;;;;39.36;19.69;101519.66;4979318;28;6947;-76
2022/08/09 12:04:05;;;;;;;;;;;;;;;39.28;19.58;101522.75;4983117;28;6953;-76
2022/08/09 12:06:32;;;;;;;;;;;;;;;39.17;19.75;101516.16;4982294;28;7718;-76
2022/08/09 12:09:02;;;;;;;;;;;;;;;39.13;19.55;101519.09;5011097;28;6914;-75
2022/08/09 12:11:28;;;;;;;;;;;;;;;39.04;19.38;101515.13;5011011;28;6795;-75
2022/08/09 12:13:58;;;;;;;;;;;;;;;38.90;19.61;101513.19;5013053;28;7350;-75
2022/08/09 12:16:30;;;;;;;;;;;;;;;38.79;20.02;101513.78;5010123;28;7099;-76
2022/08/09 12:18:57;;;;;;;;;;;;;;;38.70;19.60;101520.50;4981077;28;6872;-75
2022/08/09 12:21:37;;;;;;;;;;;;;;;38.62;20.11;101514.69;4982217;28;7266;-75
2022/08/09 12:24:07;;;;;;;;;;;;;;;38.71;19.99;101497.25;4992841;28;7438;-75
2022/08/09 12:26:49;;;;;;;;;;;;;;;38.73;19.73;101506.09;4980701;28;7201;-75
2022/08/09 12:29:18;;;;;;;;;;;;;;;38.64;19.67;101496.72;4980993;28;7206;-78
2022/08/09 12:31:47;;;;;;;;;;;;;;;38.55;19.56;101499.91;5007827;28;6968;-76
2022/08/09 12:34:16;;;;;;;;;;;;;;;38.37;20.01;101494.53;4976185;28;6824;-74
2022/08/09 12:36:53;;;;;;;;;;;;;;;38.33;19.79;101493.84;5012364;28;7005;-73
2022/08/09 12:39:19;;;;;;;;;;;;;;;38.26;19.80;101492.44;5009774;28;6988;-74
2022/08/09 12:41:45;;;;;;;;;;;;;;;38.27;19.78;101498.66;5011065;28;6980;-75
2022/08/09 12:44:11;;;;;;;;;;;;;;;38.29;19.67;101494.06;5011660;28;6784;-74
2022/08/09 12:46:43;;;;;;;;;;;;;;;38.39;19.53;101490.00;5011007;28;7176;-74
2022/08/09 12:49:11;;;;;;;;;;;;;;;38.54;19.54;101484.78;5009953;28;6815;-74
2022/08/09 12:51:37;;;;;;;;;;;;;;;38.59;19.61;101478.22;4992907;28;6978;-73
2022/08/09 12:54:06;;;;;;;;;;;;;;;38.56;19.46;101472.16;4983762;28;6812;-73
2022/08/09 12:56:33;;;;;;;;;;;;;;;38.56;19.74;101478.41;4976850;28;6805;-73
2022/08/09 12:59:12;;;;;;;;;;;;;;;38.50;19.53;101476.03;5010801;28;7097;-74